createdAt,value
2023-07-03T00:00:22.227Z,9.82
2023-07-03T00:03:11.442Z,9.82
2023-07-03T00:06:02.618Z,9.76
2023-07-03T00:08:49.587Z,9.71
2023-07-03T00:11:36.781Z,9.69
2023-07-03T00:14:23.812Z,9.54
2023-07-03T00:17:10.958Z,9.72
2023-07-03T00:19:58.082Z,9.46
2023-07-03T00:22:45.283Z,9.73
2023-07-03T00:25:32.405Z,9.71
2023-07-03T00:28:19.353Z,9.68
2023-07-03T00:31:06.826Z,9.43
2023-07-03T00:33:53.828Z,9.63
2023-07-03T00:36:40.844Z,9.63
2023-07-03T00:39:27.862Z,9.63
2023-07-03T00:42:14.836Z,9.64
2023-07-03T00:45:02.161Z,9.64
2023-07-03T00:47:49.274Z,9.65
2023-07-03T00:50:37.267Z,9.62
2023-07-03T00:53:26.051Z,9.59
2023-07-03T00:56:13.262Z,9.61
2023-07-03T00:59:00.444Z,9.60
2023-07-03T01:01:51.002Z,9.52
2023-07-03T01:05:02.360Z,9.59
2023-07-03T01:07:53.080Z,9.60
2023-07-03T01:10:42.927Z,9.60
2023-07-03T01:13:35.962Z,9.61
2023-07-03T01:16:27.535Z,9.61
2023-07-03T01:19:14.974Z,9.63
2023-07-03T01:22:17.304Z,9.64
2023-07-03T01:25:11.407Z,9.61
2023-07-03T01:28:02.039Z,9.55
2023-07-03T01:30:49.562Z,9.52
2023-07-03T01:33:40.382Z,9.49
2023-07-03T01:36:28.800Z,9.53
2023-07-03T01:39:19.754Z,9.54
2023-07-03T01:42:06.899Z,9.48
2023-07-03T01:44:53.865Z,9.53
2023-07-03T01:47:41.212Z,9.54
2023-07-03T01:50:33.340Z,9.48
2023-07-03T01:53:25.699Z,9.57
2023-07-03T01:56:36.747Z,9.61
2023-07-03T01:59:29.623Z,9.63
2023-07-03T02:02:28.304Z,9.60
2023-07-03T02:05:38.165Z,9.60
2023-07-03T02:08:28.450Z,9.66
2023-07-03T02:11:16.864Z,9.66
2023-07-03T02:14:06.486Z,9.67
2023-07-03T02:16:54.293Z,9.63
2023-07-03T02:19:44.504Z,9.71
2023-07-03T02:22:31.597Z,9.73
2023-07-03T02:25:18.531Z,9.77
2023-07-03T02:28:05.530Z,9.80
2023-07-03T02:30:52.619Z,9.83
2023-07-03T02:33:39.663Z,9.82
2023-07-03T02:36:26.861Z,9.85
2023-07-03T02:39:14.063Z,9.86
2023-07-03T02:42:01.072Z,9.91
2023-07-03T02:44:48.197Z,9.96
2023-07-03T02:47:35.583Z,10.02
2023-07-03T02:50:27.940Z,10.03
2023-07-03T02:53:14.971Z,10.09
2023-07-03T02:56:02.986Z,10.12
2023-07-03T02:58:50.893Z,9.96
2023-07-03T03:01:44.068Z,10.22
2023-07-03T03:04:31.111Z,10.28
2023-07-03T03:07:18.367Z,10.32
2023-07-03T03:10:05.344Z,10.44
2023-07-03T03:12:52.430Z,10.49
2023-07-03T03:15:39.884Z,10.56
2023-07-03T03:18:26.990Z,10.62
2023-07-03T03:21:14.495Z,10.68
2023-07-03T03:24:01.516Z,10.74
2023-07-03T03:26:48.520Z,10.80
2023-07-03T03:29:35.602Z,10.86
2023-07-03T03:32:24.380Z,10.93
2023-07-03T03:35:11.510Z,10.99
2023-07-03T03:37:59.532Z,11.05
2023-07-03T03:40:46.573Z,11.02
2023-07-03T03:43:33.767Z,11.14
2023-07-03T03:46:22.506Z,11.22
2023-07-03T03:49:09.832Z,11.18
2023-07-03T03:51:57.651Z,11.27
2023-07-03T03:54:44.875Z,11.28
2023-07-03T03:57:31.789Z,11.12
2023-07-03T04:00:18.987Z,11.14
2023-07-03T04:03:06.368Z,11.43
2023-07-03T04:05:53.868Z,11.50
2023-07-03T04:08:41.258Z,11.55
2023-07-03T04:11:28.242Z,11.60
2023-07-03T04:14:15.449Z,11.64
2023-07-03T04:17:02.520Z,11.67
2023-07-03T04:19:50.177Z,11.73
2023-07-03T04:22:37.143Z,11.75
2023-07-03T04:25:24.250Z,11.78
2023-07-03T04:28:11.194Z,11.82
2023-07-03T04:30:58.583Z,11.88
2023-07-03T04:33:45.581Z,11.92
2023-07-03T04:36:33.689Z,11.97
2023-07-03T04:39:20.629Z,12.02
2023-07-03T04:42:07.994Z,12.00
2023-07-03T04:44:55.111Z,12.00
2023-07-03T04:47:42.309Z,11.99
2023-07-03T04:50:32.936Z,12.25
2023-07-03T04:53:20.096Z,12.31
2023-07-03T04:56:07.027Z,12.35
2023-07-03T04:58:54.058Z,12.41
2023-07-03T05:01:41.094Z,12.36
2023-07-03T05:04:28.239Z,12.55
2023-07-03T05:07:15.319Z,12.59
2023-07-03T05:10:02.548Z,12.64
2023-07-03T05:12:49.897Z,12.68
2023-07-03T05:15:38.770Z,12.73
2023-07-03T05:18:25.722Z,12.55
2023-07-03T05:21:13.059Z,12.85
2023-07-03T05:24:00.245Z,12.74
2023-07-03T05:26:47.320Z,12.95
2023-07-03T05:29:34.225Z,13.02
2023-07-03T05:32:22.620Z,13.06
2023-07-03T05:35:09.661Z,13.11
2023-07-03T05:37:56.974Z,13.16
2023-07-03T05:40:43.885Z,13.23
2023-07-03T05:43:31.254Z,13.29
2023-07-03T05:46:19.761Z,13.34
2023-07-03T05:49:07.040Z,13.38
2023-07-03T05:51:53.923Z,13.42
2023-07-03T05:54:40.931Z,13.48
2023-07-03T05:57:30.796Z,13.54
2023-07-03T06:00:17.765Z,13.60
2023-07-03T06:03:08.062Z,13.65
2023-07-03T06:05:55.298Z,13.72
2023-07-03T06:08:42.431Z,13.77
2023-07-03T06:11:29.604Z,13.83
2023-07-03T06:14:16.508Z,13.90
2023-07-03T06:17:04.168Z,13.90
2023-07-03T06:19:51.578Z,13.85
2023-07-03T06:22:39.130Z,14.05
2023-07-03T06:25:26.287Z,14.09
2023-07-03T06:28:13.430Z,14.11
2023-07-03T06:31:07.274Z,14.20
2023-07-03T06:33:54.390Z,14.25
2023-07-03T06:36:41.460Z,14.29
2023-07-03T06:39:29.908Z,14.35
2023-07-03T06:42:16.844Z,14.41
2023-07-03T06:45:11.069Z,14.47
2023-07-03T06:47:58.688Z,14.50
2023-07-03T06:50:45.657Z,14.54
2023-07-03T06:53:32.586Z,14.55
2023-07-03T06:56:21.213Z,14.65
2023-07-03T06:59:11.432Z,14.72
2023-07-03T07:02:00.271Z,14.78
2023-07-03T07:04:47.406Z,14.84
2023-07-03T07:07:34.725Z,14.95
2023-07-03T07:10:21.723Z,15.00
2023-07-03T07:13:10.649Z,15.00
2023-07-03T07:15:59.341Z,14.96
2023-07-03T07:18:46.530Z,15.09
2023-07-03T07:21:33.703Z,15.12
2023-07-03T07:24:23.506Z,15.15
2023-07-03T07:27:11.602Z,15.20
2023-07-03T07:29:41.291Z,15.21
2023-07-03T07:32:10.000Z,15.27
2023-07-03T07:34:36.964Z,15.31
2023-07-03T07:37:04.119Z,15.34
2023-07-03T07:39:31.911Z,15.41
2023-07-03T07:41:58.850Z,15.41
2023-07-03T07:44:27.888Z,15.48
2023-07-03T07:46:55.235Z,15.54
2023-07-03T07:49:22.196Z,15.60
2023-07-03T07:51:49.252Z,15.68
2023-07-03T07:54:16.421Z,15.74
2023-07-03T07:56:43.448Z,15.78
2023-07-03T07:59:10.724Z,15.80
2023-07-03T08:01:38.367Z,15.82
2023-07-03T08:04:05.651Z,15.83
2023-07-03T08:06:32.761Z,15.82
2023-07-03T08:09:19.675Z,15.87
2023-07-03T08:12:06.840Z,15.90
2023-07-03T08:14:53.749Z,15.95
2023-07-03T08:17:40.756Z,15.97
2023-07-03T08:20:28.496Z,15.97
2023-07-03T08:23:15.584Z,15.98
2023-07-03T08:26:02.840Z,15.99
2023-07-03T08:28:50.610Z,16.05
2023-07-03T08:31:37.920Z,16.01
2023-07-03T08:34:25.107Z,16.16
2023-07-03T08:37:12.125Z,16.23
2023-07-03T08:40:00.461Z,16.30
2023-07-03T08:42:56.653Z,16.35
2023-07-03T08:45:57.269Z,16.43
2023-07-03T08:48:46.740Z,16.51
2023-07-03T08:51:37.942Z,16.56
2023-07-03T08:54:33.220Z,16.59
2023-07-03T08:57:21.519Z,16.50
2023-07-03T09:00:08.911Z,16.63
2023-07-03T09:03:16.193Z,16.65
2023-07-03T09:06:21.364Z,16.63
2023-07-03T09:09:21.220Z,16.62
2023-07-03T09:12:16.159Z,16.65
2023-07-03T09:15:19.455Z,16.66
2023-07-03T09:18:07.454Z,16.66
2023-07-03T09:20:54.676Z,16.59
2023-07-03T09:23:44.849Z,16.64
2023-07-03T09:26:44.642Z,16.65
2023-07-03T09:29:32.990Z,16.61
2023-07-03T09:32:20.101Z,16.60
2023-07-03T09:35:35.807Z,16.62
2023-07-03T09:38:25.136Z,16.67
2023-07-03T09:41:14.897Z,16.68
2023-07-03T09:44:05.672Z,16.59
2023-07-03T09:46:53.236Z,16.74
2023-07-03T09:49:46.361Z,16.77
2023-07-03T09:52:33.433Z,16.79
2023-07-03T09:55:23.097Z,16.81
2023-07-03T09:58:10.268Z,16.84
2023-07-03T10:07:28.597Z,16.83
2023-07-03T10:12:37.994Z,16.70
2023-07-03T10:15:09.927Z,16.61
2023-07-03T10:17:46.428Z,16.51
2023-07-03T10:20:26.417Z,16.41
2023-07-03T10:22:58.080Z,16.31
2023-07-03T10:25:30.562Z,16.09
2023-07-03T10:28:02.608Z,16.13
2023-07-03T10:30:36.242Z,16.07
2023-07-03T10:33:10.953Z,16.00
2023-07-03T10:35:42.390Z,15.95
2023-07-03T10:38:24.076Z,15.93
2023-07-03T10:41:08.471Z,15.94
2023-07-03T10:43:46.961Z,15.95
2023-07-03T10:46:26.478Z,15.96
2023-07-03T10:48:57.388Z,15.99
2023-07-03T10:51:57.187Z,15.97
2023-07-03T10:54:41.578Z,15.79
2023-07-03T10:57:12.720Z,15.86
2023-07-03T10:59:44.660Z,15.97
2023-07-03T11:02:43.635Z,15.96
2023-07-03T11:05:13.882Z,15.97
2023-07-03T11:07:55.090Z,15.92
2023-07-03T11:10:48.480Z,15.91
2023-07-03T11:13:21.548Z,15.88
2023-07-03T11:16:10.483Z,15.84
2023-07-03T11:24:20.668Z,15.70
2023-07-03T11:30:13.093Z,15.54
2023-07-03T11:32:40.809Z,15.53
2023-07-03T11:40:36.603Z,15.31
2023-07-03T11:45:40.302Z,15.08
2023-07-03T11:48:21.164Z,14.97
2023-07-03T11:50:57.740Z,15.07
2023-07-03T11:53:31.740Z,15.05
2023-07-03T11:55:59.086Z,15.01
2023-07-03T11:58:30.210Z,14.94
2023-07-03T12:01:22.217Z,14.86
2023-07-03T12:03:57.758Z,14.82
2023-07-03T12:06:40.107Z,14.75
2023-07-03T12:09:22.308Z,14.69
2023-07-03T12:12:01.764Z,14.63
2023-07-03T12:14:41.959Z,14.60
2023-07-03T12:17:23.626Z,14.59
2023-07-03T12:19:55.898Z,14.56
2023-07-03T12:22:28.628Z,14.56
2023-07-03T12:25:11.322Z,14.56
2023-07-03T12:27:40.187Z,14.54
2023-07-03T12:30:11.984Z,14.50
2023-07-03T12:32:39.205Z,14.47
2023-07-03T12:35:14.686Z,14.29
2023-07-03T12:37:44.627Z,14.32
2023-07-03T12:40:14.590Z,14.46
2023-07-03T12:42:41.770Z,14.46
2023-07-03T12:45:21.359Z,14.44
2023-07-03T12:48:05.469Z,14.30
2023-07-03T12:50:46.404Z,14.39
2023-07-03T12:53:14.120Z,14.33
2023-07-03T12:55:44.458Z,14.26
2023-07-03T12:58:13.196Z,14.28
2023-07-03T13:00:40.468Z,14.24
2023-07-03T13:03:14.174Z,14.29
2023-07-03T13:05:41.655Z,14.28
2023-07-03T13:08:15.915Z,14.26
2023-07-03T13:11:03.348Z,14.24
2023-07-03T13:13:30.722Z,14.27
2023-07-03T13:15:58.010Z,14.08
2023-07-03T13:18:25.076Z,14.26
2023-07-03T13:21:00.751Z,14.27
2023-07-03T13:23:36.955Z,14.25
2023-07-03T13:26:12.666Z,14.10
2023-07-03T13:28:50.693Z,14.19
2023-07-03T13:31:17.803Z,14.16
2023-07-03T13:34:01.764Z,14.04
2023-07-03T13:36:33.265Z,14.13
2023-07-03T13:39:09.747Z,14.12
2023-07-03T13:41:38.048Z,14.09
2023-07-03T13:44:07.620Z,14.04
2023-07-03T13:46:35.914Z,14.05
2023-07-03T13:49:03.984Z,14.07
2023-07-03T13:51:32.036Z,14.03
2023-07-03T13:54:10.479Z,13.97
2023-07-03T13:56:40.205Z,14.01
2023-07-03T13:59:10.505Z,13.97
2023-07-03T14:01:38.945Z,13.90
2023-07-03T14:04:06.983Z,13.85
2023-07-03T14:06:34.124Z,13.80
2023-07-03T14:09:02.174Z,13.72
2023-07-03T14:11:29.226Z,13.69
2023-07-03T14:13:56.922Z,13.68
2023-07-03T14:16:25.894Z,13.67
2023-07-03T14:18:52.972Z,13.63
2023-07-03T14:21:22.677Z,13.66
2023-07-03T14:23:50.056Z,13.66
2023-07-03T14:26:18.089Z,13.64
2023-07-03T14:28:46.973Z,13.65
2023-07-03T14:31:17.832Z,13.65
2023-07-03T14:33:45.585Z,13.61
2023-07-03T14:36:12.958Z,13.59
2023-07-03T14:38:40.195Z,13.46
2023-07-03T14:41:07.528Z,13.30
2023-07-03T14:43:34.864Z,13.50
2023-07-03T14:46:02.118Z,13.50
2023-07-03T14:48:29.194Z,13.36
2023-07-03T14:50:56.553Z,13.48
2023-07-03T14:53:23.639Z,13.46
2023-07-03T14:55:59.387Z,13.44
2023-07-03T14:58:27.371Z,13.45
2023-07-03T15:00:54.914Z,13.34
2023-07-03T15:03:22.215Z,13.46
2023-07-03T15:05:49.655Z,13.45
2023-07-03T15:08:16.952Z,13.45
2023-07-03T15:10:44.509Z,13.46
2023-07-03T15:13:26.850Z,13.33
2023-07-03T15:15:54.258Z,13.41
2023-07-03T15:18:23.039Z,13.41
2023-07-03T15:20:50.106Z,13.42
2023-07-03T15:23:17.317Z,13.44
2023-07-03T15:25:45.248Z,13.45
2023-07-03T15:28:12.207Z,13.45
2023-07-03T15:30:40.686Z,13.43
2023-07-03T15:33:08.022Z,13.37
2023-07-03T15:35:35.139Z,13.41
2023-07-03T15:38:02.208Z,13.42
2023-07-03T15:40:29.194Z,13.41
2023-07-03T15:42:56.297Z,13.40
2023-07-03T15:45:24.356Z,13.39
2023-07-03T15:47:51.503Z,13.37
2023-07-03T15:50:18.727Z,13.36
2023-07-03T15:52:45.886Z,13.36
2023-07-03T15:55:12.978Z,13.38
2023-07-03T15:57:40.019Z,13.35
2023-07-03T16:00:07.633Z,13.33
2023-07-03T16:02:34.624Z,13.31
2023-07-03T16:05:01.724Z,13.30
2023-07-03T16:07:29.041Z,13.14
2023-07-03T16:09:56.181Z,13.34
2023-07-03T16:12:23.298Z,13.36
2023-07-03T16:14:50.371Z,13.37
2023-07-03T16:17:17.385Z,13.35
2023-07-03T16:20:13.158Z,13.36
2023-07-03T16:22:40.432Z,13.39
2023-07-03T16:25:08.099Z,13.39
2023-07-03T16:27:36.118Z,13.37
2023-07-03T16:30:03.195Z,13.35
2023-07-03T16:32:30.948Z,13.36
2023-07-03T16:34:58.181Z,13.31
2023-07-03T16:37:44.327Z,13.38
2023-07-03T16:40:11.756Z,13.37
2023-07-03T16:42:40.147Z,13.34
2023-07-03T16:45:08.206Z,13.35
2023-07-03T16:47:35.375Z,13.35
2023-07-03T16:50:02.383Z,13.35
2023-07-03T16:52:29.467Z,13.35
2023-07-03T16:54:56.757Z,13.37
2023-07-03T16:57:23.950Z,13.34
2023-07-03T16:59:51.282Z,13.36
2023-07-03T17:02:18.649Z,13.36
2023-07-03T17:04:45.756Z,13.36
2023-07-03T17:07:12.870Z,13.36
2023-07-03T17:09:40.177Z,13.21
2023-07-03T17:12:07.509Z,13.38
2023-07-03T17:14:35.717Z,13.40
2023-07-03T17:17:02.842Z,13.40
2023-07-03T17:19:29.852Z,13.40
2023-07-03T17:21:57.090Z,13.40
2023-07-03T17:24:24.273Z,13.41
2023-07-03T17:26:52.062Z,13.41
2023-07-03T17:29:19.157Z,13.41
2023-07-03T17:31:46.431Z,13.40
2023-07-03T17:34:14.096Z,13.38
2023-07-03T17:36:41.227Z,13.41
2023-07-03T17:39:08.384Z,13.43
2023-07-03T17:41:36.605Z,13.44
2023-07-03T17:44:03.712Z,13.47
2023-07-03T17:46:30.747Z,13.46
2023-07-03T17:48:57.960Z,13.47
2023-07-03T17:51:26.643Z,13.47
2023-07-03T17:53:54.233Z,13.29
2023-07-03T17:56:21.328Z,13.50
2023-07-03T17:58:48.914Z,13.50
2023-07-03T18:01:16.036Z,13.50
2023-07-03T18:03:43.273Z,13.47
2023-07-03T18:06:10.467Z,13.49
2023-07-03T18:08:38.725Z,13.50
2023-07-03T18:11:06.027Z,13.50
2023-07-03T18:13:33.285Z,13.50
2023-07-03T18:16:00.692Z,13.53
2023-07-03T18:18:28.031Z,13.54
2023-07-03T18:20:55.216Z,13.54
2023-07-03T18:23:42.304Z,13.55
2023-07-03T18:26:29.263Z,13.54
2023-07-03T18:29:16.726Z,13.54
2023-07-03T18:32:03.900Z,13.50
2023-07-03T18:34:50.923Z,13.54
2023-07-03T18:37:37.981Z,13.56
2023-07-03T18:40:25.592Z,13.52
2023-07-03T18:43:12.501Z,13.56
2023-07-03T18:45:59.480Z,13.57
2023-07-03T18:48:46.487Z,13.57
2023-07-03T18:51:37.801Z,13.57
2023-07-03T18:54:24.849Z,13.56
2023-07-03T18:57:11.881Z,13.57
2023-07-03T18:59:58.940Z,13.48
2023-07-03T19:02:45.909Z,13.63
2023-07-03T19:05:33.337Z,13.66
2023-07-03T19:08:20.378Z,13.66
2023-07-03T19:11:07.781Z,13.66
2023-07-03T19:13:55.032Z,13.54
2023-07-03T19:16:42.374Z,13.33
2023-07-03T19:19:29.355Z,13.69
2023-07-03T19:22:16.326Z,13.71
2023-07-03T19:25:03.424Z,13.72
2023-07-03T19:27:50.494Z,13.73
2023-07-03T19:30:37.573Z,13.74
2023-07-03T19:33:24.518Z,13.77
2023-07-03T19:36:11.797Z,13.68
2023-07-03T19:38:58.789Z,13.81
2023-07-03T19:41:45.947Z,13.82
2023-07-03T19:44:32.998Z,13.83
2023-07-03T19:47:20.159Z,13.80
2023-07-03T19:50:07.189Z,13.85
2023-07-03T19:52:54.320Z,13.86
2023-07-03T19:55:41.300Z,13.85
2023-07-03T19:58:28.356Z,13.82
2023-07-03T20:01:17.686Z,13.85
2023-07-03T20:04:04.911Z,13.81
2023-07-03T20:06:51.830Z,13.85
2023-07-03T20:09:38.904Z,13.86
2023-07-03T20:12:26.589Z,13.85
2023-07-03T20:15:14.018Z,13.84
2023-07-03T20:18:01.141Z,13.82
2023-07-03T20:20:48.280Z,13.83
2023-07-03T20:23:35.312Z,13.85
2023-07-03T20:26:23.262Z,13.84
2023-07-03T20:29:10.208Z,13.85
2023-07-03T20:31:57.249Z,13.86
2023-07-03T20:34:44.228Z,13.86
2023-07-03T20:37:31.410Z,13.87
2023-07-03T20:40:19.510Z,13.88
2023-07-03T20:43:06.532Z,13.90
2023-07-03T20:45:53.868Z,13.92
2023-07-03T20:48:41.098Z,13.83
2023-07-03T20:51:33.276Z,13.93
2023-07-03T20:54:20.637Z,13.94
2023-07-03T20:57:07.577Z,13.93
2023-07-03T20:59:55.279Z,13.91
2023-07-03T21:02:42.159Z,13.97
2023-07-03T21:05:38.849Z,13.98
2023-07-03T21:08:25.937Z,13.98
2023-07-03T21:11:19.373Z,13.98
2023-07-03T21:14:08.603Z,14.00
2023-07-03T21:16:56.045Z,14.01
2023-07-03T21:19:43.168Z,14.02
2023-07-03T21:22:30.287Z,14.02
2023-07-03T21:25:17.242Z,14.01
2023-07-03T21:28:04.433Z,14.02
2023-07-03T21:30:51.614Z,14.02
2023-07-03T21:33:39.670Z,14.02
2023-07-03T21:36:27.669Z,14.02
2023-07-03T21:39:17.077Z,13.99
2023-07-03T21:42:04.234Z,14.00
2023-07-03T21:44:51.152Z,13.99
2023-07-03T21:47:38.342Z,13.99
2023-07-03T21:50:25.755Z,13.98
2023-07-03T21:53:12.856Z,13.97
2023-07-03T21:55:59.769Z,13.98
2023-07-03T21:58:46.885Z,13.98
2023-07-03T22:01:44.478Z,13.98
2023-07-03T22:04:31.567Z,13.96
2023-07-03T22:07:18.667Z,13.99
2023-07-03T22:10:06.019Z,14.00
2023-07-03T22:12:53.154Z,14.00
2023-07-03T22:15:40.534Z,14.00
2023-07-03T22:18:27.528Z,14.01
2023-07-03T22:21:14.622Z,13.80
2023-07-03T22:24:02.165Z,13.87
2023-07-03T22:26:49.211Z,13.80
2023-07-03T22:29:36.189Z,13.98
2023-07-03T22:32:23.275Z,13.85
2023-07-03T22:35:10.241Z,13.97
2023-07-03T22:37:57.893Z,13.97
2023-07-03T22:40:44.847Z,13.95
2023-07-03T22:43:31.893Z,13.97
2023-07-03T22:46:26.663Z,13.96
2023-07-03T22:49:24.429Z,13.97
2023-07-03T22:52:12.374Z,13.86
2023-07-03T22:54:59.435Z,13.94
2023-07-03T22:57:46.614Z,13.90
2023-07-03T23:00:34.914Z,13.83
2023-07-03T23:03:22.300Z,13.92
2023-07-03T23:06:09.603Z,13.84
2023-07-03T23:08:57.755Z,13.86
2023-07-03T23:11:44.764Z,13.81
2023-07-03T23:14:33.358Z,13.77
2023-07-03T23:17:23.315Z,13.77
2023-07-03T23:20:10.352Z,13.74
2023-07-03T23:22:57.203Z,13.74
2023-07-03T23:25:44.359Z,13.68
2023-07-03T23:28:31.383Z,13.72
2023-07-03T23:31:23.526Z,13.72
2023-07-03T23:34:10.433Z,13.70
2023-07-03T23:36:57.814Z,13.74
2023-07-03T23:39:45.003Z,13.73
2023-07-03T23:42:32.036Z,13.75
2023-07-03T23:45:19.039Z,13.72
2023-07-03T23:48:05.992Z,13.77
2023-07-03T23:50:53.190Z,13.75
2023-07-03T23:53:44.553Z,13.72
2023-07-03T23:56:35.809Z,13.73
2023-07-03T23:59:22.733Z,13.74
